Time;durP1;ratioP1;P1;durP2;ratioP2;P2;SDS_P1;SDS_P2;PMS_P1;PMS_P2;Temp;Humidity;BMP_temperature;BMP_pressure;BME280_temperature;BME280_humidity;BME280_pressure;Samples;Min_cycle;Max_cycle;Signal;HPM_P1;HPM_P2
2022/02/20 00:02:01;;;;;;;1.33;0.63;;;4.50;1.00;;;;;;5070239;28;20652;-72
2022/02/20 00:04:29;;;;;;;1.33;1.07;;;4.50;1.00;;;;;;5069423;28;20674;-72
2022/02/20 00:06:56;;;;;;;4.50;1.10;;;4.50;1.00;;;;;;5071475;28;20301;-72
2022/02/20 00:09:23;;;;;;;1.63;0.80;;;4.50;1.00;;;;;;5088040;28;20230;-72
2022/02/20 00:11:50;;;;;;;0.90;0.90;;;4.50;1.00;;;;;;5070353;28;20254;-72
2022/02/20 00:14:17;;;;;;;1.07;0.97;;;4.50;1.00;;;;;;5071505;28;20214;-72
2022/02/20 00:16:44;;;;;;;1.90;0.97;;;4.50;1.00;;;;;;5071427;28;20673;-72
2022/02/20 00:19:11;;;;;;;1.73;1.07;;;4.50;1.00;;;;;;5071127;28;20203;-71
2022/02/20 00:21:39;;;;;;;1.60;0.93;;;4.50;1.00;;;;;;5071608;28;20731;-72
2022/02/20 00:24:06;;;;;;;3.37;1.13;;;4.50;1.00;;;;;;5068263;28;20198;-72
2022/02/20 00:26:33;;;;;;;3.90;0.80;;;4.50;1.00;;;;;;5071241;28;20206;-72
2022/02/20 00:29:00;;;;;;;2.10;1.07;;;4.40;1.00;;;;;;5071251;28;20722;-72
2022/02/20 00:31:27;;;;;;;3.80;0.90;;;4.40;1.00;;;;;;5073399;28;20245;-72
2022/02/20 00:33:53;;;;;;;1.77;1.20;;;4.40;18.90;;;;;;5075166;28;20636;-72
2022/02/20 00:36:20;;;;;;;2.20;1.27;;;4.40;20.10;;;;;;5074926;28;20285;-72
2022/02/20 00:38:48;;;;;;;1.00;1.00;;;4.40;1.00;;;;;;5075169;28;20571;-72
2022/02/20 00:41:15;;;;;;;3.07;1.17;;;4.40;16.10;;;;;;5074739;28;20573;-72
2022/02/20 00:43:42;;;;;;;1.10;1.10;;;4.40;91.00;;;;;;5074781;28;20202;-73
2022/02/20 00:46:09;;;;;;;2.50;1.07;;;4.50;99.90;;;;;;5069493;28;20616;-72
2022/02/20 00:48:36;;;;;;;1.77;1.07;;;4.50;93.70;;;;;;5072699;28;20206;-72
2022/02/20 00:51:03;;;;;;;1.73;0.73;;;4.50;94.00;;;;;;5072256;28;20233;-72
2022/02/20 00:53:30;;;;;;;0.90;0.80;;;4.60;52.50;;;;;;5070445;28;20281;-72
2022/02/20 00:55:58;;;;;;;0.93;0.83;;;4.60;40.70;;;;;;5070785;28;20708;-68
2022/02/20 00:58:27;;;;;;;1.47;1.00;;;4.60;99.40;;;;;;5068354;28;20293;-68
2022/02/20 01:00:54;;;;;;;0.83;0.83;;;4.60;99.90;;;;;;5074059;28;20198;-68
2022/02/20 01:03:21;;;;;;;4.83;1.20;;;4.70;99.90;;;;;;5071838;28;20233;-68
2022/02/20 01:05:48;;;;;;;0.73;0.73;;;4.70;99.90;;;;;;5067475;28;20207;-68
2022/02/20 01:08:17;;;;;;;0.70;0.70;;;4.60;99.90;;;;;;5059500;28;20206;-68
2022/02/20 01:10:46;;;;;;;1.87;0.67;;;4.70;99.90;;;;;;5073718;28;20260;-68
2022/02/20 01:13:14;;;;;;;0.67;0.67;;;4.60;99.90;;;;;;5073053;28;20297;-69
2022/02/20 01:15:41;;;;;;;1.20;1.10;;;4.70;99.90;;;;;;5071721;28;20212;-69
2022/02/20 01:18:08;;;;;;;0.90;0.77;;;4.70;99.90;;;;;;5064854;28;20694;-69
2022/02/20 01:20:35;;;;;;;1.90;0.97;;;4.70;99.90;;;;;;5075069;28;20209;-69
2022/02/20 01:23:02;;;;;;;0.70;0.70;;;4.70;99.90;;;;;;5062493;28;20207;-69
2022/02/20 01:25:29;;;;;;;1.47;0.87;;;4.70;99.90;;;;;;5070169;28;20213;-70
2022/02/20 01:27:58;;;;;;;0.50;0.50;;;4.70;99.90;;;;;;5069749;28;20202;-69
2022/02/20 01:30:26;;;;;;;1.27;0.73;;;4.60;99.90;;;;;;5071006;28;20221;-69
2022/02/20 01:32:53;;;;;;;0.87;0.57;;;4.60;99.90;;;;;;5068719;28;20209;-69
2022/02/20 01:35:20;;;;;;;2.10;0.80;;;4.60;99.90;;;;;;5070960;28;20204;-69
2022/02/20 01:37:48;;;;;;;2.87;0.90;;;4.60;99.90;;;;;;5066879;28;20573;-69
2022/02/20 01:40:15;;;;;;;0.80;0.80;;;4.60;99.90;;;;;;5073890;28;20252;-69
2022/02/20 01:42:42;;;;;;;1.50;0.90;;;4.60;99.90;;;;;;5060846;28;20210;-69
2022/02/20 01:45:12;;;;;;;0.83;0.80;;;4.70;99.90;;;;;;5063448;28;20201;-69
2022/02/20 01:47:40;;;;;;;1.13;0.80;;;4.70;99.90;;;;;;5064774;28;20263;-69
2022/02/20 01:50:08;;;;;;;0.80;0.80;;;4.70;99.90;;;;;;5073982;28;20569;-69
2022/02/20 01:52:36;;;;;;;1.37;0.90;;;4.70;99.90;;;;;;5074583;28;20229;-69
2022/02/20 01:55:07;;;;;;;0.80;0.80;;;4.70;99.90;;;;;;5062556;28;20223;-69
2022/02/20 01:57:35;;;;;;;1.30;1.20;;;4.70;99.90;;;;;;5078243;28;20575;-69
2022/02/20 02:00:01;;;;;;;2.70;1.00;;;4.80;99.90;;;;;;5063166;28;20632;-69
2022/02/20 02:02:28;;;;;;;1.17;1.07;;;4.80;99.90;;;;;;5069023;28;20204;-69
2022/02/20 02:04:56;;;;;;;2.63;1.70;;;4.80;99.90;;;;;;5067710;28;20206;-69
2022/02/20 02:07:23;;;;;;;2.30;2.07;;;4.90;99.90;;;;;;5072143;28;20206;-69
2022/02/20 02:09:50;;;;;;;4.43;2.80;;;5.00;99.90;;;;;;5065587;28;20718;-69
2022/02/20 02:12:17;;;;;;;4.50;2.70;;;5.10;99.90;;;;;;5072069;28;20585;-69
2022/02/20 02:14:56;;;;;;;3.40;3.10;;;5.30;99.90;;;;;;5062212;28;20663;-69
2022/02/20 02:17:27;;;;;;;4.93;3.10;;;5.40;99.90;;;;;;5066497;28;20234;-69
2022/02/20 02:19:53;;;;;;;3.20;2.87;;;5.40;99.90;;;;;;5065027;28;20198;-71
2022/02/20 02:22:22;;;;;;;2.73;2.53;;;5.40;99.90;;;;;;5061960;28;20586;-71
2022/02/20 02:24:49;;;;;;;5.07;2.70;;;5.50;99.90;;;;;;5072103;28;20199;-71
2022/02/20 02:27:17;;;;;;;2.60;2.27;;;5.50;99.90;;;;;;5065752;28;20198;-71
2022/02/20 02:29:46;;;;;;;2.80;2.30;;;5.60;99.90;;;;;;5070253;28;20300;-71
2022/02/20 02:32:14;;;;;;;3.97;2.20;;;5.70;99.90;;;;;;5073370;28;20706;-71
2022/02/20 02:34:42;;;;;;;2.40;2.20;;;5.80;99.90;;;;;;5064969;28;20640;-71
2022/02/20 02:37:09;;;;;;;2.90;2.27;;;5.80;99.90;;;;;;5072174;28;20667;-71
2022/02/20 02:39:38;;;;;;;2.43;1.97;;;5.80;99.90;;;;;;5070264;28;20660;-71
2022/02/20 02:42:07;;;;;;;2.73;2.03;;;5.90;99.90;;;;;;5078711;28;20195;-71
2022/02/20 02:44:34;;;;;;;3.00;2.10;;;5.90;99.90;;;;;;5063507;28;20202;-71
2022/02/20 02:47:02;;;;;;;3.67;2.27;;;5.90;99.90;;;;;;5065323;28;20202;-71
2022/02/20 02:49:30;;;;;;;3.30;3.00;;;5.90;99.90;;;;;;5071732;28;20206;-71
2022/02/20 02:51:57;;;;;;;3.50;2.50;;;5.90;99.90;;;;;;5071749;28;20222;-71
2022/02/20 02:54:23;;;;;;;4.93;2.70;;;5.90;99.90;;;;;;5071124;28;20195;-71
2022/02/20 02:56:52;;;;;;;3.40;2.50;;;5.90;99.90;;;;;;5072153;28;20198;-71
2022/02/20 02:59:19;;;;;;;2.50;2.30;;;5.90;99.90;;;;;;5071593;28;20194;-71
2022/02/20 03:01:47;;;;;;;4.73;2.73;;;5.90;99.90;;;;;;5072277;28;20297;-71
2022/02/20 03:04:15;;;;;;;7.93;2.80;;;5.90;99.90;;;;;;5080564;28;20198;-71
2022/02/20 03:06:42;;;;;;;6.23;3.13;;;6.00;99.90;;;;;;5072131;28;20400;-71
2022/02/20 03:09:09;;;;;;;3.50;2.73;;;6.00;99.90;;;;;;5080408;28;20215;-71
2022/02/20 03:11:36;;;;;;;5.63;2.67;;;6.00;99.90;;;;;;5075536;28;20684;-71
2022/02/20 03:14:05;;;;;;;4.80;2.87;;;6.00;99.90;;;;;;5066478;28;20569;-71
2022/02/20 03:16:32;;;;;;;3.53;2.70;;;6.10;99.90;;;;;;5071080;28;20198;-71
2022/02/20 03:18:59;;;;;;;4.43;2.97;;;6.00;99.90;;;;;;5067401;28;20195;-71
2022/02/20 03:21:26;;;;;;;3.90;2.77;;;6.00;99.90;;;;;;5070998;28;20194;-71
2022/02/20 03:23:53;;;;;;;3.67;2.80;;;6.10;99.90;;;;;;5058810;28;20190;-71
2022/02/20 03:26:20;;;;;;;6.30;2.70;;;6.10;99.90;;;;;;5071386;28;20293;-71
2022/02/20 03:28:47;;;;;;;5.63;2.97;;;6.00;99.90;;;;;;5066804;28;20201;-71
2022/02/20 03:31:15;;;;;;;4.27;2.53;;;6.00;95.50;;;;;;5068225;28;20217;-71
2022/02/20 03:33:42;;;;;;;6.27;3.17;;;6.00;99.90;;;;;;5067662;28;20297;-71
2022/02/20 03:36:09;;;;;;;6.57;3.07;;;6.00;92.50;;;;;;5068311;28;20213;-71
2022/02/20 03:38:36;;;;;;;3.40;2.33;;;6.00;63.50;;;;;;5071821;28;20190;-71
2022/02/20 03:41:04;;;;;;;4.60;2.50;;;6.00;39.20;;;;;;5069083;28;20205;-71
2022/02/20 03:43:31;;;;;;;6.13;2.40;;;5.90;19.90;;;;;;5071093;28;20202;-71
2022/02/20 03:45:58;;;;;;;4.33;2.27;;;5.90;1.00;;;;;;5070646;28;20210;-71
2022/02/20 03:48:28;;;;;;;3.73;2.33;;;5.90;2.40;;;;;;5080570;28;20209;-71
2022/02/20 03:50:55;;;;;;;5.70;2.70;;;5.90;12.90;;;;;;5070678;28;20648;-71
2022/02/20 03:53:22;;;;;;;8.47;2.90;;;5.90;1.00;;;;;;5071879;28;20648;-71
2022/02/20 03:55:49;;;;;;;6.13;2.40;;;5.90;1.00;;;;;;5076291;28;20202;-71
2022/02/20 03:58:16;;;;;;;8.43;3.17;;;5.90;1.00;;;;;;5075976;28;20648;-71
2022/02/20 04:00:43;;;;;;;5.03;2.40;;;5.80;1.00;;;;;;5070786;28;20297;-71
2022/02/20 04:03:09;;;;;;;5.73;2.33;;;5.80;1.00;;;;;;5071197;28;20213;-71
2022/02/20 04:05:38;;;;;;;3.33;2.70;;;5.80;1.00;;;;;;5086751;28;20297;-71
2022/02/20 04:08:06;;;;;;;5.07;2.40;;;5.80;1.00;;;;;;5074277;28;20199;-71
2022/02/20 04:10:33;;;;;;;4.70;2.20;;;5.80;1.00;;;;;;5075433;28;20213;-71
2022/02/20 04:13:00;;;;;;;7.67;3.00;;;5.80;1.00;;;;;;5074938;28;20230;-71
2022/02/20 04:15:27;;;;;;;8.63;2.77;;;5.80;1.00;;;;;;5074223;28;20202;-71
2022/02/20 04:17:54;;;;;;;8.27;2.80;;;5.80;1.00;;;;;;5074344;28;20212;-71
2022/02/20 04:20:21;;;;;;;7.03;2.73;;;5.80;1.00;;;;;;5071681;28;20194;-71
2022/02/20 04:22:50;;;;;;;5.37;2.63;;;5.80;1.00;;;;;;5080326;28;20226;-71
2022/02/20 04:25:17;;;;;;;5.73;2.73;;;5.80;1.00;;;;;;5081328;28;20561;-71
2022/02/20 04:27:44;;;;;;;4.93;3.00;;;5.70;1.00;;;;;;5074590;28;20229;-71
2022/02/20 04:30:13;;;;;;;9.43;3.67;;;5.70;1.00;;;;;;5073993;28;20282;-71
2022/02/20 04:32:40;;;;;;;6.67;3.50;;;5.70;1.00;;;;;;5074059;28;20229;-71
2022/02/20 04:35:07;;;;;;;6.80;4.03;;;5.60;38.10;;;;;;5074905;28;20206;-71
2022/02/20 04:37:34;;;;;;;4.87;3.30;;;5.70;36.50;;;;;;5078364;28;20647;-71
2022/02/20 04:40:03;;;;;;;6.83;3.73;;;5.60;51.00;;;;;;5080173;28;20203;-71
2022/02/20 04:42:30;;;;;;;13.07;4.30;;;5.70;14.10;;;;;;5074583;28;20560;-71
2022/02/20 04:44:57;;;;;;;10.03;4.10;;;5.70;60.00;;;;;;5072959;28;20217;-71
2022/02/20 04:47:24;;;;;;;8.10;4.20;;;5.60;99.10;;;;;;5074457;28;20281;-71
2022/02/20 04:49:51;;;;;;;8.10;4.10;;;5.60;65.80;;;;;;5074471;28;20203;-71
2022/02/20 04:52:18;;;;;;;12.27;4.73;;;5.60;99.90;;;;;;5063745;28;20688;-71
2022/02/20 04:54:44;;;;;;;9.03;4.10;;;5.60;99.90;;;;;;5067958;28;20221;-71
2022/02/20 04:57:13;;;;;;;5.77;4.47;;;5.60;95.80;;;;;;5075500;28;20209;-71
2022/02/20 04:59:39;;;;;;;9.37;4.50;;;5.60;58.30;;;;;;5081978;28;20660;-71
2022/02/20 05:02:06;;;;;;;11.33;4.20;;;5.60;23.60;;;;;;5080112;28;20206;-71
2022/02/20 05:04:33;;;;;;;10.07;4.07;;;5.60;2.90;;;;;;5083433;28;20708;-71
2022/02/20 05:07:00;;;;;;;8.50;3.80;;;5.60;1.00;;;;;;5077831;28;20198;-71
2022/02/20 05:09:27;;;;;;;8.80;4.43;;;5.60;1.00;;;;;;5074392;28;20565;-70
2022/02/20 05:11:54;;;;;;;10.30;4.20;;;5.60;1.00;;;;;;5076141;28;20305;-71
2022/02/20 05:14:22;;;;;;;8.87;4.43;;;5.60;1.00;;;;;;5072585;28;20206;-71
2022/02/20 05:16:49;;;;;;;10.67;4.63;;;5.60;1.00;;;;;;5072043;28;20206;-71
2022/02/20 05:19:16;;;;;;;6.43;4.27;;;5.60;1.00;;;;;;5079498;28;20204;-71
2022/02/20 05:21:43;;;;;;;10.17;4.43;;;5.60;1.00;;;;;;5073348;28;20201;-71
2022/02/20 05:24:09;;;;;;;11.47;4.33;;;5.60;1.00;;;;;;5073214;28;20208;-71
2022/02/20 05:26:36;;;;;;;9.87;4.07;;;5.60;1.00;;;;;;5073086;28;20229;-71
2022/02/20 05:29:03;;;;;;;5.20;4.17;;;5.60;1.00;;;;;;5073717;28;20202;-71
2022/02/20 05:31:31;;;;;;;13.43;7.07;;;5.70;1.00;;;;;;5072825;28;20593;-71
2022/02/20 05:33:58;;;;;;;9.47;5.10;;;5.70;1.00;;;;;;5072973;28;20194;-71
2022/02/20 05:36:25;;;;;;;10.40;4.23;;;5.60;1.00;;;;;;5072825;28;20198;-71
2022/02/20 05:38:52;;;;;;;10.97;5.77;;;5.60;1.00;;;;;;5073780;28;20340;-71
2022/02/20 05:41:20;;;;;;;9.47;4.83;;;5.60;1.00;;;;;;5073459;28;20220;-71
2022/02/20 05:43:47;;;;;;;8.97;4.80;;;5.60;1.00;;;;;;5072628;28;20252;-71
2022/02/20 05:46:14;;;;;;;10.53;4.53;;;5.60;1.00;;;;;;5073433;28;20213;-71
2022/02/20 05:48:42;;;;;;;9.47;4.53;;;5.60;1.00;;;;;;5073498;28;20200;-72
2022/02/20 05:51:09;;;;;;;11.40;4.97;;;5.60;1.00;;;;;;5072222;28;20195;-72
2022/02/20 05:53:36;;;;;;;11.80;5.17;;;5.60;1.00;;;;;;5073098;28;20317;-72
2022/02/20 05:56:03;;;;;;;8.90;4.73;;;5.60;1.00;;;;;;5072769;28;20662;-73
2022/02/20 05:58:31;;;;;;;10.87;4.70;;;5.60;1.00;;;;;;5072721;28;20210;-73
2022/02/20 06:00:58;;;;;;;11.30;5.03;;;5.60;1.00;;;;;;5071771;28;20202;-73
2022/02/20 06:03:25;;;;;;;10.47;4.80;;;5.60;1.00;;;;;;5069069;28;20569;-73
2022/02/20 06:05:54;;;;;;;7.73;4.60;;;5.60;1.00;;;;;;5071958;28;20569;-73
2022/02/20 06:08:21;;;;;;;11.47;5.60;;;5.60;1.00;;;;;;5075155;28;20703;-73
2022/02/20 06:10:48;;;;;;;9.87;5.00;;;5.60;1.00;;;;;;5070957;28;20698;-73
2022/02/20 06:13:14;;;;;;;7.73;5.13;;;5.60;1.00;;;;;;5073643;28;20222;-72
2022/02/20 06:15:41;;;;;;;9.53;4.53;;;5.60;1.00;;;;;;5067389;28;20209;-72
2022/02/20 06:18:08;;;;;;;11.00;5.03;;;5.60;1.00;;;;;;5067106;28;20292;-73
2022/02/20 06:20:35;;;;;;;8.23;4.47;;;5.50;1.00;;;;;;5068324;28;20203;-72
2022/02/20 06:23:03;;;;;;;9.20;4.90;;;5.60;1.00;;;;;;5071184;28;20559;-73
2022/02/20 06:25:30;;;;;;;9.13;4.43;;;5.50;1.00;;;;;;5070714;28;20213;-73
2022/02/20 06:27:58;;;;;;;9.40;4.40;;;5.50;1.00;;;;;;5068397;28;20577;-72
2022/02/20 06:30:25;;;;;;;10.47;4.77;;;5.50;1.00;;;;;;5070516;28;20198;-73
2022/02/20 06:32:52;;;;;;;8.40;4.60;;;5.50;1.00;;;;;;5071601;28;20210;-72
2022/02/20 06:35:19;;;;;;;11.40;4.60;;;5.50;1.00;;;;;;5070552;28;20199;-72
2022/02/20 06:37:46;;;;;;;5.97;3.63;;;5.50;1.00;;;;;;5071393;28;20657;-72
2022/02/20 06:40:14;;;;;;;8.37;4.50;;;5.50;1.00;;;;;;5071582;28;20205;-72
2022/02/20 06:42:41;;;;;;;9.27;4.60;;;5.50;99.90;;;;;;5070518;28;20482;-72
2022/02/20 06:45:09;;;;;;;8.50;4.40;;;5.50;1.00;;;;;;5071011;28;20199;-73
2022/02/20 06:47:36;;;;;;;10.43;4.90;;;5.50;20.80;;;;;;5070884;28;20241;-72
2022/02/20 06:50:03;;;;;;;8.33;4.67;;;5.50;1.00;;;;;;5070469;28;20691;-72
2022/02/20 06:52:29;;;;;;;8.50;4.97;;;5.50;1.00;;;;;;5070425;28;20222;-73
2022/02/20 06:54:56;;;;;;;11.07;4.87;;;5.50;1.00;;;;;;5070514;28;20199;-72
2022/02/20 06:57:25;;;;;;;8.37;4.30;;;5.40;1.00;;;;;;5070877;28;20734;-72
2022/02/20 06:59:52;;;;;;;6.80;4.63;;;5.40;1.00;;;;;;5068127;28;20248;-72
2022/02/20 07:02:19;;;;;;;10.70;5.00;;;5.40;1.00;;;;;;5069115;28;20640;-72
2022/02/20 07:04:46;;;;;;;9.03;4.50;;;5.40;47.50;;;;;;5070369;28;20289;-72
2022/02/20 07:07:14;;;;;;;7.43;4.77;;;5.40;99.90;;;;;;5069561;28;20560;-72
2022/02/20 07:09:41;;;;;;;8.23;5.43;;;5.40;1.00;;;;;;5068965;28;20199;-72
2022/02/20 07:12:08;;;;;;;8.53;4.20;;;5.40;1.00;;;;;;5070235;28;20215;-72
2022/02/20 07:14:37;;;;;;;6.67;3.70;;;5.40;1.00;;;;;;5070431;28;20214;-73
2022/02/20 07:17:04;;;;;;;7.47;4.13;;;5.30;1.00;;;;;;5078884;28;20200;-73
2022/02/20 07:19:31;;;;;;;7.47;4.20;;;5.40;1.00;;;;;;5070192;28;20198;-73
2022/02/20 07:21:58;;;;;;;6.17;3.70;;;5.30;1.00;;;;;;5075343;28;20212;-73
2022/02/20 07:24:24;;;;;;;7.83;3.97;;;5.30;1.00;;;;;;5068868;28;20205;-73
2022/02/20 07:26:52;;;;;;;6.53;3.90;;;5.30;1.00;;;;;;5068405;28;20202;-73
2022/02/20 07:29:19;;;;;;;4.80;3.43;;;5.30;1.00;;;;;;5063953;28;20206;-73
2022/02/20 07:31:47;;;;;;;6.50;3.90;;;5.30;1.00;;;;;;5068250;28;20208;-73
2022/02/20 07:34:14;;;;;;;5.23;3.30;;;5.30;1.00;;;;;;5072233;28;20256;-73
2022/02/20 07:36:42;;;;;;;4.27;3.23;;;5.30;1.00;;;;;;5063069;28;20656;-73
2022/02/20 07:39:09;;;;;;;5.60;3.40;;;5.30;1.00;;;;;;5074160;28;20842;-73
2022/02/20 07:41:36;;;;;;;5.30;3.40;;;5.30;1.00;;;;;;5068564;28;20656;-73
2022/02/20 07:44:03;;;;;;;8.63;3.83;;;5.30;1.00;;;;;;5071666;28;20285;-72
2022/02/20 07:46:31;;;;;;;9.17;3.50;;;5.40;1.00;;;;;;5074784;28;20216;-73
2022/02/20 07:48:59;;;;;;;7.60;4.23;;;5.30;1.00;;;;;;5067616;28;20647;-73
2022/02/20 07:51:26;;;;;;;7.33;4.37;;;5.40;99.90;;;;;;5080738;28;20213;-73
2022/02/20 07:53:53;;;;;;;9.73;4.60;;;5.40;1.00;;;;;;5072441;28;20690;-70
2022/02/20 07:56:21;;;;;;;9.63;5.23;;;5.40;99.90;;;;;;5075352;28;20221;-73
2022/02/20 07:58:48;;;;;;;9.70;5.50;;;5.40;99.90;;;;;;5071969;28;20203;-72
2022/02/20 08:01:15;;;;;;;10.17;5.60;;;5.40;99.90;;;;;;5075119;28;20329;-72
2022/02/20 08:03:42;;;;;;;12.53;6.53;;;5.40;99.90;;;;;;5074157;28;20659;-71
2022/02/20 08:06:10;;;;;;;10.97;6.23;;;5.40;99.90;;;;;;5073743;28;20203;-72
2022/02/20 08:08:37;;;;;;;10.87;6.07;;;5.40;99.90;;;;;;5077528;28;20198;-72
2022/02/20 08:11:04;;;;;;;15.77;6.97;;;5.50;1.00;;;;;;5075910;28;20203;-71
2022/02/20 08:13:32;;;;;;;12.23;6.63;;;5.40;1.00;;;;;;5076762;28;20561;-72
2022/02/20 08:15:59;;;;;;;12.57;7.13;;;5.50;99.90;;;;;;5075131;28;20209;-72
2022/02/20 08:18:26;;;;;;;9.10;5.90;;;5.50;1.00;;;;;;5078828;28;20361;-68
2022/02/20 08:20:53;;;;;;;10.40;6.63;;;5.50;1.00;;;;;;5076908;28;20199;-68
2022/02/20 08:23:22;;;;;;;11.00;6.27;;;5.50;99.90;;;;;;5078835;28;20674;-68
2022/02/20 08:25:49;;;;;;;9.33;6.13;;;5.40;1.00;;;;;;5076611;28;20664;-68
2022/02/20 08:28:16;;;;;;;12.17;6.40;;;5.40;1.00;;;;;;5076065;28;20221;-68
2022/02/20 08:30:43;;;;;;;12.43;6.70;;;5.50;1.00;;;;;;5077794;28;20206;-68
2022/02/20 08:33:10;;;;;;;12.13;6.73;;;5.40;12.40;;;;;;5077392;28;20214;-68
2022/02/20 08:35:38;;;;;;;10.47;6.13;;;5.50;1.00;;;;;;5073646;28;20653;-68
2022/02/20 08:38:08;;;;;;;8.67;5.33;;;5.50;1.00;;;;;;5066963;28;20202;-68
2022/02/20 08:40:39;;;;;;;12.43;6.10;;;5.40;99.90;;;;;;5076286;28;20203;-68
2022/02/20 08:43:06;;;;;;;8.50;5.83;;;5.40;99.90;;;;;;5075152;28;20206;-68
2022/02/20 08:45:33;;;;;;;12.70;6.90;;;5.40;99.90;;;;;;5073088;28;20202;-68
2022/02/20 08:48:01;;;;;;;13.17;6.10;;;5.40;99.90;;;;;;5071319;28;20207;-68
2022/02/20 08:50:29;;;;;;;8.30;5.87;;;5.40;1.00;;;;;;5079103;28;20205;-68
2022/02/20 08:52:56;;;;;;;10.77;5.63;;;5.50;1.00;;;;;;5071554;28;20218;-68
2022/02/20 08:55:24;;;;;;;10.67;5.67;;;5.50;1.00;;;;;;5073528;28;20244;-68
2022/02/20 08:57:53;;;;;;;10.27;6.90;;;5.50;1.00;;;;;;5072150;28;20616;-68
2022/02/20 09:00:20;;;;;;;10.90;6.03;;;5.50;1.00;;;;;;5071944;28;20203;-68
2022/02/20 09:02:47;;;;;;;8.83;5.10;;;5.50;1.00;;;;;;5071170;28;20761;-68
2022/02/20 09:05:14;;;;;;;11.57;5.33;;;5.50;1.00;;;;;;5075590;28;20210;-68
2022/02/20 09:07:41;;;;;;;8.80;4.90;;;5.60;1.00;;;;;;5075785;28;20252;-68
2022/02/20 09:10:09;;;;;;;8.00;5.20;;;5.70;1.00;;;;;;5071918;28;20195;-68
2022/02/20 09:12:37;;;;;;;7.93;5.20;;;5.70;1.00;;;;;;5074150;28;20648;-68
2022/02/20 09:15:07;;;;;;;8.90;4.47;;;5.70;1.00;;;;;;5076148;28;20652;-68
2022/02/20 09:17:34;;;;;;;8.33;5.07;;;5.70;1.00;;;;;;5069886;28;20229;-68
2022/02/20 09:20:02;;;;;;;10.53;4.20;;;5.70;1.00;;;;;;5068754;28;20513;-68
2022/02/20 09:22:29;;;;;;;9.37;5.07;;;5.80;1.00;;;;;;5078052;28;20206;-68
2022/02/20 09:24:56;;;;;;;7.10;4.20;;;5.80;1.00;;;;;;5073547;28;20206;-67
2022/02/20 09:27:23;;;;;;;10.43;5.07;;;5.80;1.00;;;;;;5077149;28;20205;-68
2022/02/20 09:29:50;;;;;;;7.83;3.73;;;5.80;1.00;;;;;;5072807;28;20679;-68
2022/02/20 09:32:21;;;;;;;7.90;4.67;;;5.80;1.00;;;;;;5072159;28;20198;-67
2022/02/20 09:34:48;;;;;;;9.23;4.23;;;5.80;1.00;;;;;;5074529;28;20230;-68
2022/02/20 09:37:15;;;;;;;7.20;3.67;;;5.80;1.00;;;;;;5078502;28;20198;-68
2022/02/20 09:39:42;;;;;;;8.53;3.40;;;5.90;1.00;;;;;;5069376;28;20207;-68
2022/02/20 09:42:09;;;;;;;7.53;3.73;;;5.80;1.00;;;;;;5071130;28;20199;-68
2022/02/20 09:44:36;;;;;;;5.37;3.07;;;5.90;1.00;;;;;;5076023;28;20213;-68
2022/02/20 09:47:04;;;;;;;7.90;3.50;;;5.90;1.00;;;;;;5074959;28;20221;-68
2022/02/20 09:49:34;;;;;;;6.60;3.43;;;5.90;1.00;;;;;;5069580;28;20198;-68
2022/02/20 09:52:02;;;;;;;8.57;3.57;;;5.90;1.00;;;;;;5068222;28;20203;-67
2022/02/20 09:54:29;;;;;;;6.63;3.30;;;5.90;1.00;;;;;;5075766;28;20229;-67
2022/02/20 09:56:56;;;;;;;6.60;3.20;;;5.90;1.00;;;;;;5073908;28;20197;-67
2022/02/20 09:59:23;;;;;;;10.03;3.20;;;6.00;5.90;;;;;;5077249;28;20201;-68
2022/02/20 10:02:08;;;;;;;10.07;3.40;;;6.00;5.60;;;;;;5071044;28;20207;-68
2022/02/20 10:04:43;;;;;;;7.33;3.30;;;6.00;1.00;;;;;;5068399;28;20214;-68
2022/02/20 10:07:26;;;;;;;5.43;3.10;;;6.00;1.00;;;;;;5069649;28;20205;-68
2022/02/20 10:09:53;;;;;;;5.27;3.43;;;6.10;1.00;;;;;;5073391;28;20194;-67
2022/02/20 10:12:21;;;;;;;8.30;3.50;;;6.20;1.00;;;;;;5067756;28;20296;-68
2022/02/20 10:14:49;;;;;;;5.67;3.10;;;6.20;1.00;;;;;;5046768;28;20310;-68
2022/02/20 10:17:19;;;;;;;6.57;3.33;;;6.20;1.00;;;;;;5046938;28;20199;-67
2022/02/20 10:19:59;;;;;;;6.00;2.60;;;6.20;1.00;;;;;;5047277;28;20207;-67
2022/02/20 10:22:34;;;;;;;5.43;2.90;;;6.30;60.00;;;;;;5045046;28;20215;-67
2022/02/20 10:25:07;;;;;;;8.60;3.37;;;6.30;56.20;;;;;;5043320;28;20462;-67
2022/02/20 10:27:35;;;;;;;6.67;3.30;;;6.40;99.90;;;;;;5043966;28;20229;-68
2022/02/20 10:30:13;;;;;;;3.57;2.83;;;6.40;99.90;;;;;;5048512;28;20206;-68
2022/02/20 10:32:40;;;;;;;6.13;2.97;;;6.50;99.90;;;;;;5046544;28;20580;-67
2022/02/20 10:35:11;;;;;;;8.53;2.80;;;6.60;99.90;;;;;;5046598;28;20231;-68
2022/02/20 10:37:38;;;;;;;7.13;3.00;;;6.60;99.90;;;;;;5048820;28;20259;-69
2022/02/20 10:40:27;;;;;;;2.80;2.43;;;6.70;99.90;;;;;;5048819;28;20732;-68
2022/02/20 10:42:56;;;;;;;4.20;2.57;;;6.80;99.90;;;;;;5041980;28;20684;-68
2022/02/20 10:45:26;;;;;;;4.57;2.57;;;6.90;99.90;;;;;;5048757;28;20616;-68
2022/02/20 10:47:53;;;;;;;5.57;2.40;;;6.90;99.90;;;;;;5050257;28;20692;-68
2022/02/20 10:50:24;;;;;;;6.47;3.00;;;7.00;99.90;;;;;;5042511;28;20265;-68
2022/02/20 10:53:12;;;;;;;3.27;2.30;;;7.10;99.90;;;;;;5039094;28;20215;-68
2022/02/20 10:55:42;;;;;;;4.17;2.17;;;7.20;99.90;;;;;;5046514;28;20213;-68
2022/02/20 10:58:14;;;;;;;3.93;2.10;;;7.30;99.90;;;;;;5046180;28;20211;-68
2022/02/20 11:00:49;;;;;;;2.47;2.00;;;7.30;99.90;;;;;;5044616;28;20211;-68
2022/02/20 11:03:17;;;;;;;3.87;2.30;;;7.40;99.90;;;;;;5045242;28;20214;-68
2022/02/20 11:05:46;;;;;;;5.43;2.47;;;7.40;99.90;;;;;;5050492;28;20302;-68
2022/02/20 11:08:14;;;;;;;1.90;1.70;;;7.40;99.90;;;;;;5046629;28;20207;-68
2022/02/20 11:10:43;;;;;;;5.23;2.10;;;7.50;99.90;;;;;;5045955;28;20251;-68
2022/02/20 11:13:13;;;;;;;3.57;1.70;;;7.50;99.90;;;;;;5052739;28;20210;-68
2022/02/20 11:15:41;;;;;;;1.77;1.40;;;7.50;99.90;;;;;;5068372;28;20284;-68
2022/02/20 11:18:10;;;;;;;2.97;1.47;;;7.60;99.90;;;;;;5059959;28;20203;-70
2022/02/20 11:20:46;;;;;;;1.90;1.37;;;7.60;99.90;;;;;;5067189;28;20249;-70
2022/02/20 11:23:15;;;;;;;1.63;1.53;;;7.60;99.90;;;;;;5064900;28;20552;-71
2022/02/20 11:25:47;;;;;;;1.93;1.60;;;7.70;99.90;;;;;;5065825;28;20244;-71
2022/02/20 11:28:14;;;;;;;3.27;2.10;;;7.70;99.90;;;;;;5065217;28;20206;-70
2022/02/20 11:30:42;;;;;;;2.90;1.20;;;7.70;99.90;;;;;;5069729;28;20264;-71
2022/02/20 11:33:11;;;;;;;1.60;1.50;;;7.80;99.90;;;;;;5068377;28;20614;-71
2022/02/20 11:35:45;;;;;;;2.90;1.30;;;7.80;99.90;;;;;;5067525;28;20217;-71
2022/02/20 11:38:14;;;;;;;1.83;1.13;;;7.90;99.90;;;;;;5061064;28;20202;-71
2022/02/20 11:40:54;;;;;;;1.20;0.80;;;7.90;99.90;;;;;;5071424;28;20595;-71
2022/02/20 11:43:22;;;;;;;1.20;0.90;;;8.00;99.90;;;;;;5066248;28;20722;-71
2022/02/20 11:46:08;;;;;;;0.87;0.83;;;8.00;99.90;;;;;;5072711;28;20209;-71
2022/02/20 11:48:36;;;;;;;2.00;1.10;;;8.10;99.90;;;;;;5067063;28;20660;-68
2022/02/20 11:51:20;;;;;;;2.30;1.60;;;8.10;99.90;;;;;;5062959;28;20210;-68
2022/02/20 11:53:47;;;;;;;3.83;1.30;;;8.10;99.90;;;;;;5072148;28;20210;-68
2022/02/20 11:56:14;;;;;;;1.67;1.20;;;8.10;99.90;;;;;;5073634;28;20195;-68
2022/02/20 11:58:44;;;;;;;2.37;1.13;;;8.20;99.90;;;;;;5072498;28;20234;-68
2022/02/20 12:01:13;;;;;;;1.93;1.03;;;8.20;99.90;;;;;;5075068;28;21163;-68
2022/02/20 12:04:16;;;;;;;3.27;1.43;;;8.30;99.90;;;;;;5072671;28;20207;-68
2022/02/20 12:06:44;;;;;;;2.20;1.40;;;8.40;99.90;;;;;;5065543;28;20343;-68
2022/02/20 12:09:28;;;;;;;1.20;1.10;;;8.40;99.90;;;;;;5072768;28;20576;-68
2022/02/20 12:11:55;;;;;;;3.87;1.30;;;8.50;99.90;;;;;;5067372;28;20640;-68
2022/02/20 12:14:25;;;;;;;1.37;1.00;;;8.50;99.90;;;;;;5073833;28;20361;-68
2022/02/20 12:16:55;;;;;;;1.97;0.87;;;8.60;99.90;;;;;;5068245;28;20631;-68
2022/02/20 12:19:25;;;;;;;2.90;1.43;;;8.60;99.90;;;;;;5068854;28;20203;-68
2022/02/20 12:21:58;;;;;;;2.13;1.20;;;8.70;99.90;;;;;;5068341;28;20194;-68
2022/02/20 12:24:28;;;;;;;1.77;1.40;;;8.80;99.90;;;;;;5069215;28;20202;-68
2022/02/20 12:26:57;;;;;;;3.67;2.47;;;8.90;99.90;;;;;;5074793;28;20264;-69
2022/02/20 12:29:33;;;;;;;2.00;1.73;;;9.00;99.90;;;;;;5080674;28;20198;-68
2022/02/20 12:32:10;;;;;;;2.43;2.00;;;9.10;99.90;;;;;;5062289;28;20205;-68
2022/02/20 12:34:55;;;;;;;4.30;2.17;;;9.30;99.90;;;;;;5056117;28;20216;-69
2022/02/20 12:37:27;;;;;;;5.47;2.37;;;9.30;99.90;;;;;;5075512;28;20245;-69
2022/02/20 12:39:57;;;;;;;5.63;2.60;;;9.40;99.90;;;;;;5078556;28;20194;-69
2022/02/20 12:42:25;;;;;;;4.10;2.67;;;9.40;99.90;;;;;;5077819;28;20207;-69
2022/02/20 12:44:53;;;;;;;5.00;2.40;;;9.50;99.90;;;;;;5067525;28;20226;-69
2022/02/20 12:47:20;;;;;;;10.00;3.10;;;9.60;99.90;;;;;;5073864;28;20204;-69
2022/02/20 12:49:55;;;;;;;4.70;2.60;;;9.50;99.90;;;;;;5071978;28;20615;-69
2022/02/20 12:52:32;;;;;;;5.50;2.67;;;9.60;99.90;;;;;;5072043;28;20637;-69
2022/02/20 12:54:59;;;;;;;5.87;2.90;;;9.60;99.90;;;;;;5072914;28;20218;-69
2022/02/20 12:57:28;;;;;;;5.43;2.90;;;9.70;99.90;;;;;;5075948;28;20202;-69
2022/02/20 12:59:56;;;;;;;5.13;3.23;;;9.70;97.00;;;;;;5075493;28;20195;-69
2022/02/20 13:02:35;;;;;;;5.17;2.90;;;9.70;99.90;;;;;;5074909;28;20202;-69
2022/02/20 13:05:21;;;;;;;4.37;2.33;;;9.70;1.00;;;;;;5067137;28;20256;-69
2022/02/20 13:07:53;;;;;;;7.57;3.33;;;9.80;1.00;;;;;;5059521;28;20215;-69